createdAt,value
2024-01-05T18:31:00.716Z,5.71
2024-01-05T18:33:28.082Z,5.60
2024-01-05T18:35:54.749Z,5.49
2024-01-05T18:38:21.346Z,5.51
2024-01-05T18:40:47.947Z,5.45
2024-01-05T18:43:14.550Z,5.48
2024-01-05T18:45:41.599Z,5.22
2024-01-05T18:48:08.425Z,5.20
2024-01-05T18:50:38.660Z,5.06
2024-01-05T18:53:05.292Z,5.07
2024-01-05T18:57:35.443Z,5.09
2024-01-05T19:00:02.591Z,5.03
2024-01-05T19:02:31.617Z,4.93
2024-01-05T19:04:59.465Z,4.76
2024-01-05T19:07:27.265Z,4.81
2024-01-05T19:09:56.149Z,4.97
2024-01-05T19:12:24.552Z,4.85
2024-01-05T19:14:53.909Z,4.81
2024-01-05T19:17:21.985Z,4.76
2024-01-05T19:22:21.164Z,4.72
2024-01-05T19:24:50.813Z,4.70
2024-01-05T19:27:18.996Z,4.63
2024-01-05T19:29:46.862Z,4.76
2024-01-05T19:32:16.058Z,4.66
2024-01-05T19:34:43.951Z,4.76
2024-01-05T19:37:12.009Z,4.71
2024-01-05T19:39:39.867Z,4.63
2024-01-05T19:42:08.381Z,4.53
2024-01-05T19:44:36.194Z,4.53
2024-01-05T19:47:03.963Z,4.67
2024-01-05T19:49:33.566Z,4.57
2024-01-05T19:52:02.251Z,4.47
2024-01-05T19:54:30.165Z,4.52
2024-01-05T19:56:58.980Z,4.59
2024-01-05T19:59:26.891Z,4.47
2024-01-05T20:01:54.857Z,4.53
2024-01-05T20:04:22.787Z,4.52
2024-01-05T20:06:52.170Z,4.59
2024-01-05T20:09:20.641Z,4.48
2024-01-05T20:11:48.880Z,4.47
2024-01-05T20:14:17.273Z,4.49
2024-01-05T20:16:45.459Z,4.42
2024-01-05T20:19:14.206Z,4.47
2024-01-05T20:21:42.350Z,4.52
2024-01-05T20:24:12.030Z,4.41
2024-01-05T20:26:40.201Z,4.37
2024-01-05T20:29:08.592Z,4.38
2024-01-05T20:31:36.732Z,4.35
2024-01-05T20:34:05.970Z,4.15
2024-01-05T20:36:36.208Z,4.07
2024-01-05T20:39:04.167Z,4.13
2024-01-05T20:41:33.442Z,4.14
2024-01-05T20:44:01.262Z,4.11
2024-01-05T20:46:29.120Z,4.17
2024-01-05T20:48:57.112Z,4.43
2024-01-05T20:51:25.962Z,4.19
2024-01-05T20:53:53.797Z,4.19
2024-01-05T20:56:21.671Z,4.12
2024-01-05T20:58:51.289Z,4.11
2024-01-05T21:01:19.725Z,4.18
2024-01-05T21:03:48.030Z,4.21
2024-01-05T21:06:16.227Z,4.07
2024-01-05T21:08:44.183Z,4.16
2024-01-05T21:11:11.999Z,4.11
2024-01-05T21:13:40.493Z,4.01
2024-01-05T21:16:10.324Z,4.22
2024-01-05T21:18:38.253Z,4.01
2024-01-05T21:21:08.250Z,4.08
2024-01-05T21:23:36.126Z,4.09
2024-01-05T21:26:05.378Z,3.95
2024-01-05T21:28:33.599Z,3.94
2024-01-05T21:31:06.376Z,4.09
2024-01-05T21:33:36.937Z,4.02
2024-01-05T21:36:05.555Z,3.90
2024-01-05T21:38:34.573Z,3.94
2024-01-05T21:41:02.436Z,3.97
2024-01-05T21:43:30.344Z,3.92
2024-01-05T21:45:58.776Z,3.92
2024-01-05T21:48:26.819Z,3.95
2024-01-05T21:50:56.034Z,3.78
2024-01-05T21:53:24.170Z,3.84
2024-01-05T21:55:52.984Z,3.76
2024-01-05T21:58:20.852Z,3.80
2024-01-05T22:00:49.113Z,3.74
2024-01-05T22:03:19.850Z,3.77
2024-01-05T22:05:48.910Z,3.79
2024-01-05T22:08:18.976Z,3.90
2024-01-05T22:10:49.448Z,3.84
2024-01-05T22:13:17.916Z,3.80
2024-01-05T22:15:45.748Z,3.81
2024-01-05T22:18:13.847Z,3.72
2024-01-05T22:20:43.287Z,3.88
2024-01-05T22:23:11.421Z,3.81
2024-01-05T22:25:41.574Z,3.63
2024-01-05T22:28:09.653Z,3.74
2024-01-05T22:30:37.701Z,3.72
2024-01-05T22:33:06.312Z,3.65
2024-01-05T22:35:34.304Z,3.59
2024-01-05T22:38:02.590Z,3.77
2024-01-05T22:40:30.481Z,3.74
2024-01-05T22:42:59.645Z,3.82
2024-01-05T22:45:27.542Z,3.82
2024-01-05T22:47:55.448Z,3.66
2024-01-05T22:50:23.401Z,3.63
2024-01-05T22:52:51.507Z,3.57
2024-01-05T22:55:19.656Z,3.60
2024-01-05T22:57:47.464Z,3.56
2024-01-05T23:00:18.607Z,3.50
2024-01-05T23:02:47.383Z,3.49
2024-01-05T23:05:15.218Z,3.50
2024-01-05T23:07:43.130Z,3.49
2024-01-05T23:10:11.366Z,3.58
2024-01-05T23:12:39.948Z,3.41
2024-01-05T23:15:09.415Z,3.53
2024-01-05T23:17:39.284Z,3.61
2024-01-05T23:20:09.950Z,3.52
2024-01-05T23:22:38.112Z,3.56
2024-01-05T23:25:06.712Z,3.58
2024-01-05T23:27:35.244Z,3.55
2024-01-05T23:30:04.018Z,3.54
2024-01-05T23:32:32.111Z,3.63
2024-01-05T23:35:01.701Z,3.56
2024-01-05T23:37:31.407Z,3.46
2024-01-05T23:39:59.270Z,3.44
2024-01-05T23:42:27.153Z,3.45
2024-01-05T23:44:55.676Z,3.52
2024-01-05T23:47:23.690Z,3.53
2024-01-05T23:49:51.632Z,3.31
2024-01-05T23:52:20.907Z,3.31
2024-01-05T23:54:48.866Z,3.36
2024-01-05T23:57:16.803Z,3.29
2024-01-05T23:59:44.910Z,3.35
